createdAt,value
2019-05-30T00:00:16.858Z,12.30
2019-05-30T00:01:13.697Z,12.40
2019-05-30T00:02:18.006Z,12.40
2019-05-30T00:03:22.890Z,12.40
2019-05-30T00:04:27.055Z,12.30
2019-05-30T00:05:31.990Z,12.30
2019-05-30T00:06:36.203Z,12.30
2019-05-30T00:07:41.293Z,12.30
2019-05-30T00:08:45.615Z,12.30
2019-05-30T00:09:50.717Z,12.30
2019-05-30T00:10:54.887Z,12.20
2019-05-30T00:12:00.827Z,12.20
2019-05-30T00:13:05.499Z,12.20
2019-05-30T00:14:10.259Z,12.20
2019-05-30T00:15:14.951Z,12.20
2019-05-30T00:16:19.925Z,12.20
2019-05-30T00:17:24.157Z,12.20
2019-05-30T00:18:28.979Z,12.20
2019-05-30T00:19:34.095Z,12.20
2019-05-30T00:20:39.043Z,12.10
2019-05-30T00:21:43.593Z,12.10
2019-05-30T00:22:48.451Z,12.10
2019-05-30T00:23:52.710Z,12.10
2019-05-30T00:24:57.890Z,12.20
2019-05-30T00:26:03.387Z,12.10
2019-05-30T00:27:08.850Z,12.10
2019-05-30T00:28:13.039Z,12.10
2019-05-30T00:29:18.081Z,12.00
2019-05-30T00:30:24.726Z,12.00
2019-05-30T00:31:28.962Z,12.00
2019-05-30T00:32:33.280Z,11.90
2019-05-30T00:33:38.097Z,11.90
2019-05-30T00:34:42.548Z,11.90
2019-05-30T00:35:47.612Z,11.90
2019-05-30T00:36:51.762Z,11.90
2019-05-30T00:37:57.713Z,11.90
2019-05-30T00:39:02.402Z,11.80
2019-05-30T00:40:07.735Z,11.90
2019-05-30T00:41:12.161Z,11.90
2019-05-30T00:42:17.023Z,11.80
2019-05-30T00:43:21.192Z,11.80
2019-05-30T00:44:26.192Z,11.80
2019-05-30T00:45:30.392Z,11.80
2019-05-30T00:46:35.405Z,11.80
2019-05-30T00:47:39.943Z,11.80
2019-05-30T00:48:45.031Z,11.70
2019-05-30T00:49:49.410Z,11.70
2019-05-30T00:50:54.403Z,11.60
2019-05-30T00:51:58.696Z,11.70
2019-05-30T00:53:03.445Z,11.70
2019-05-30T00:54:07.728Z,11.70
2019-05-30T00:55:12.538Z,11.70
2019-05-30T00:56:17.281Z,11.70
2019-05-30T00:57:22.042Z,11.70
2019-05-30T00:58:26.472Z,11.70
2019-05-30T00:59:31.425Z,11.70
2019-05-30T01:00:43.317Z,11.70
2019-05-30T01:01:42.303Z,11.70
2019-05-30T01:02:46.660Z,11.70
2019-05-30T01:03:51.724Z,11.70
2019-05-30T01:04:56.974Z,11.60
2019-05-30T01:06:02.973Z,11.60
2019-05-30T01:07:07.342Z,11.60
2019-05-30T01:08:12.525Z,11.60
2019-05-30T01:09:16.815Z,11.60
2019-05-30T01:10:21.670Z,11.50
2019-05-30T01:11:25.876Z,11.60
2019-05-30T01:12:30.977Z,11.60
2019-05-30T01:13:35.290Z,11.50
2019-05-30T01:14:40.074Z,11.50
2019-05-30T01:15:44.570Z,11.50
2019-05-30T01:16:49.309Z,11.50
2019-05-30T01:17:53.870Z,11.50
2019-05-30T01:18:59.038Z,11.40
2019-05-30T01:20:05.222Z,11.40
2019-05-30T01:21:10.345Z,11.40
2019-05-30T01:22:14.563Z,11.50
2019-05-30T01:23:19.289Z,11.50
2019-05-30T01:24:23.680Z,11.40
2019-05-30T01:25:28.583Z,11.40
2019-05-30T01:26:32.741Z,11.40
2019-05-30T01:27:37.751Z,11.40
2019-05-30T01:28:42.106Z,11.40
2019-05-30T01:29:46.925Z,11.30
2019-05-30T01:31:00.340Z,11.30
2019-05-30T01:31:59.288Z,11.30
2019-05-30T01:33:03.906Z,11.30
2019-05-30T01:34:08.724Z,11.20
2019-05-30T01:35:13.298Z,11.30
2019-05-30T01:36:18.429Z,11.20
2019-05-30T01:37:22.766Z,11.20
2019-05-30T01:38:27.487Z,11.20
2019-05-30T01:39:31.834Z,11.20
2019-05-30T01:40:36.629Z,11.20
2019-05-30T01:41:40.787Z,11.20
2019-05-30T01:42:45.742Z,11.20
2019-05-30T01:43:50.059Z,11.30
2019-05-30T01:44:55.241Z,11.40
2019-05-30T01:46:00.124Z,11.30
2019-05-30T01:47:06.310Z,11.20
2019-05-30T01:48:11.034Z,11.20
2019-05-30T01:49:15.847Z,11.30
2019-05-30T01:50:20.455Z,11.30
2019-05-30T01:51:25.207Z,11.30
2019-05-30T01:52:29.929Z,11.20
2019-05-30T01:53:34.667Z,11.20
2019-05-30T01:54:39.032Z,11.20
2019-05-30T01:55:43.982Z,11.10
2019-05-30T01:56:48.234Z,11.00
2019-05-30T01:57:53.157Z,11.00
2019-05-30T01:58:58.542Z,11.10
2019-05-30T02:00:08.057Z,11.00
2019-05-30T02:01:23.784Z,11.00
2019-05-30T02:02:16.754Z,11.00
2019-05-30T02:03:21.070Z,11.00
2019-05-30T02:04:26.012Z,11.00
2019-05-30T02:05:30.333Z,11.00
2019-05-30T02:06:37.996Z,11.00
2019-05-30T02:07:41.163Z,11.00
2019-05-30T02:08:46.045Z,10.80
2019-05-30T02:09:50.327Z,10.80
2019-05-30T02:10:55.337Z,10.90
2019-05-30T02:11:59.480Z,10.80
2019-05-30T02:13:05.457Z,10.70
2019-05-30T02:14:10.108Z,10.70
2019-05-30T02:15:15.236Z,10.70
2019-05-30T02:16:19.523Z,10.70
2019-05-30T02:17:24.532Z,10.70
2019-05-30T02:18:28.703Z,10.80
2019-05-30T02:19:33.557Z,10.80
2019-05-30T02:20:37.864Z,10.80
2019-05-30T02:21:42.741Z,10.90
2019-05-30T02:22:47.320Z,10.80
2019-05-30T02:23:52.103Z,10.90
2019-05-30T02:24:56.379Z,10.90
2019-05-30T02:26:02.230Z,10.80
2019-05-30T02:27:06.665Z,10.80
2019-05-30T02:28:11.617Z,10.80
2019-05-30T02:29:15.818Z,10.70
2019-05-30T02:30:20.813Z,10.80
2019-05-30T02:31:38.482Z,10.80
2019-05-30T02:32:31.581Z,10.90
2019-05-30T02:33:35.928Z,10.90
2019-05-30T02:34:40.861Z,10.90
2019-05-30T02:35:45.238Z,10.80
2019-05-30T02:36:49.973Z,10.80
2019-05-30T02:37:54.202Z,10.80
2019-05-30T02:39:00.405Z,10.70
2019-05-30T02:40:09.902Z,10.70
2019-05-30T02:41:12.767Z,10.70
2019-05-30T02:42:17.227Z,10.70
2019-05-30T02:43:22.199Z,10.70
2019-05-30T02:44:26.554Z,10.70
2019-05-30T02:45:31.681Z,10.60
2019-05-30T02:46:36.030Z,10.60
2019-05-30T02:47:41.007Z,10.60
2019-05-30T02:48:58.389Z,10.70
2019-05-30T02:49:52.079Z,10.70
2019-05-30T02:50:56.254Z,10.60
2019-05-30T02:52:02.641Z,10.70
2019-05-30T02:53:08.256Z,10.80
2019-05-30T02:54:14.136Z,10.80
2019-05-30T02:55:18.263Z,10.70
2019-05-30T02:56:23.245Z,10.80
2019-05-30T02:57:27.651Z,10.70
2019-05-30T02:58:32.541Z,10.70
2019-05-30T02:59:36.747Z,10.70
2019-05-30T03:00:41.728Z,10.70
2019-05-30T03:02:00.083Z,10.80
2019-05-30T03:02:52.652Z,10.70
2019-05-30T03:03:56.973Z,10.70
2019-05-30T03:05:02.532Z,10.70
2019-05-30T03:06:09.180Z,10.70
2019-05-30T03:07:14.871Z,10.60
2019-05-30T03:08:19.286Z,10.60
2019-05-30T03:09:24.158Z,10.60
2019-05-30T03:10:28.704Z,10.60
2019-05-30T03:11:33.701Z,10.60
2019-05-30T03:12:37.937Z,10.50
2019-05-30T03:13:43.061Z,10.50
2019-05-30T03:14:47.658Z,10.50
2019-05-30T03:15:53.012Z,10.60
2019-05-30T03:16:57.355Z,10.60
2019-05-30T03:18:04.084Z,10.70
2019-05-30T03:19:10.915Z,10.60
2019-05-30T03:20:22.509Z,10.70
2019-05-30T03:21:21.833Z,10.70
2019-05-30T03:22:27.023Z,10.60
2019-05-30T03:23:31.348Z,10.60
2019-05-30T03:24:36.242Z,10.60
2019-05-30T03:25:40.424Z,10.70
2019-05-30T03:26:45.499Z,10.70
2019-05-30T03:27:49.892Z,10.70
2019-05-30T03:28:55.018Z,10.70
2019-05-30T03:29:59.343Z,10.70
2019-05-30T03:31:10.466Z,10.60
2019-05-30T03:32:49.051Z,10.50
2019-05-30T03:33:37.325Z,10.50
2019-05-30T03:34:28.673Z,10.50
2019-05-30T03:35:41.066Z,10.40
2019-05-30T03:36:38.388Z,10.50
2019-05-30T03:37:43.331Z,10.50
2019-05-30T03:38:47.578Z,10.50
2019-05-30T03:39:52.812Z,10.50
2019-05-30T03:40:57.623Z,10.60
2019-05-30T03:42:04.429Z,10.50
2019-05-30T03:43:10.626Z,10.60
2019-05-30T03:44:15.771Z,10.50
2019-05-30T03:45:20.317Z,10.50
2019-05-30T03:46:28.422Z,10.50
2019-05-30T03:47:34.331Z,10.60
2019-05-30T03:48:41.669Z,10.70
2019-05-30T03:49:49.330Z,10.70
2019-05-30T03:50:56.774Z,10.70
2019-05-30T03:52:05.052Z,10.70
2019-05-30T03:53:13.549Z,10.60
2019-05-30T03:54:18.765Z,10.60
2019-05-30T03:55:24.920Z,10.60
2019-05-30T03:56:37.175Z,10.70
2019-05-30T03:57:46.530Z,10.60
2019-05-30T03:58:56.717Z,10.60
2019-05-30T04:00:11.825Z,10.60
2019-05-30T04:01:22.634Z,10.50
2019-05-30T04:02:58.240Z,10.60
2019-05-30T04:04:09.204Z,10.60
2019-05-30T04:05:19.319Z,10.50
2019-05-30T04:06:28.934Z,10.50
2019-05-30T04:07:36.583Z,10.50
2019-05-30T04:08:42.953Z,10.40
2019-05-30T04:09:50.079Z,10.40
2019-05-30T04:10:58.072Z,10.40
2019-05-30T04:12:14.884Z,10.40
2019-05-30T04:13:27.416Z,10.50
2019-05-30T04:14:35.822Z,10.50
2019-05-30T04:15:40.366Z,10.50
2019-05-30T04:16:45.317Z,10.60
2019-05-30T04:17:49.625Z,10.70
2019-05-30T04:18:54.947Z,10.70
2019-05-30T04:19:59.324Z,10.70
2019-05-30T04:21:04.343Z,10.70
2019-05-30T04:22:09.378Z,10.70
2019-05-30T04:23:16.687Z,10.80
2019-05-30T04:24:20.902Z,10.70
2019-05-30T04:25:25.706Z,10.70
2019-05-30T04:26:30.027Z,10.70
2019-05-30T04:27:34.739Z,10.60
2019-05-30T04:28:38.955Z,10.60
2019-05-30T04:29:43.871Z,10.70
2019-05-30T04:30:48.373Z,10.70
2019-05-30T04:31:53.211Z,10.70
2019-05-30T04:33:16.319Z,10.60
2019-05-30T04:34:04.052Z,10.60
2019-05-30T04:35:10.141Z,10.60
2019-05-30T04:36:16.970Z,10.60
2019-05-30T04:37:21.604Z,10.60
2019-05-30T04:38:26.705Z,10.60
2019-05-30T04:39:30.911Z,10.60
2019-05-30T04:40:35.821Z,10.60
2019-05-30T04:41:40.102Z,10.60
2019-05-30T04:42:45.019Z,10.60
2019-05-30T04:43:49.274Z,10.60
2019-05-30T04:44:54.044Z,10.60
2019-05-30T04:45:58.359Z,10.70
2019-05-30T04:47:03.311Z,10.70
2019-05-30T04:48:07.478Z,10.70
2019-05-30T04:49:14.255Z,10.70
2019-05-30T04:50:20.559Z,10.70
2019-05-30T04:51:25.776Z,10.70
2019-05-30T04:52:30.089Z,10.80
2019-05-30T04:53:34.975Z,10.80
2019-05-30T04:54:39.411Z,10.70
2019-05-30T04:55:44.446Z,10.80
2019-05-30T04:56:48.721Z,10.80
2019-05-30T04:57:53.852Z,10.80
2019-05-30T04:58:58.063Z,10.80
2019-05-30T05:00:02.905Z,10.80
2019-05-30T05:01:07.316Z,10.90
2019-05-30T05:02:13.750Z,10.80
2019-05-30T05:03:36.926Z,10.90
2019-05-30T05:04:25.236Z,10.90
2019-05-30T05:05:29.486Z,10.90
2019-05-30T05:06:34.400Z,11.00
2019-05-30T05:07:38.611Z,11.00
2019-05-30T05:08:43.894Z,11.10
2019-05-30T05:09:48.049Z,11.10
2019-05-30T05:10:52.854Z,11.10
2019-05-30T05:11:57.110Z,11.00
2019-05-30T05:13:02.071Z,11.10
2019-05-30T05:14:06.474Z,11.10
2019-05-30T05:15:12.399Z,11.10
2019-05-30T05:16:27.109Z,11.20
2019-05-30T05:17:23.701Z,11.20
2019-05-30T05:18:27.905Z,11.20
2019-05-30T05:19:32.886Z,11.30
2019-05-30T05:20:37.076Z,11.30
2019-05-30T05:21:41.957Z,11.30
2019-05-30T05:22:46.124Z,11.40
2019-05-30T05:23:50.997Z,11.40
2019-05-30T05:24:55.578Z,11.30
2019-05-30T05:26:01.602Z,11.30
2019-05-30T05:27:09.579Z,11.30
2019-05-30T05:28:13.654Z,11.30
2019-05-30T05:29:18.253Z,11.30
2019-05-30T05:30:24.404Z,11.30
2019-05-30T05:31:28.860Z,11.40
2019-05-30T05:32:33.937Z,11.30
2019-05-30T05:33:38.205Z,11.30
2019-05-30T05:34:43.293Z,11.40
2019-05-30T05:35:47.599Z,11.40
2019-05-30T05:36:52.337Z,11.50
2019-05-30T05:37:56.561Z,11.50
2019-05-30T05:39:01.368Z,11.50
2019-05-30T05:40:06.556Z,11.50
2019-05-30T05:41:11.427Z,11.50
2019-05-30T05:42:16.079Z,11.60
2019-05-30T05:43:22.386Z,11.60
2019-05-30T05:44:26.920Z,11.60
2019-05-30T05:45:31.851Z,11.70
2019-05-30T05:46:36.059Z,11.60
2019-05-30T05:47:40.888Z,11.70
2019-05-30T05:48:45.139Z,11.70
2019-05-30T05:49:50.223Z,11.70
2019-05-30T05:50:54.345Z,11.70
2019-05-30T05:51:59.259Z,11.80
2019-05-30T05:53:03.771Z,11.70
2019-05-30T05:54:08.587Z,11.70
2019-05-30T05:55:12.911Z,11.70
2019-05-30T05:56:18.821Z,11.70
2019-05-30T05:57:23.537Z,11.70
2019-05-30T05:58:29.346Z,11.70
2019-05-30T05:59:33.790Z,11.80
2019-05-30T06:00:38.820Z,11.80
2019-05-30T06:01:42.968Z,11.80
2019-05-30T06:02:48.202Z,11.90
2019-05-30T06:03:52.411Z,11.90
2019-05-30T06:04:57.151Z,11.90
2019-05-30T06:06:01.483Z,11.90
2019-05-30T06:07:06.412Z,11.90
2019-05-30T06:08:10.683Z,11.90
2019-05-30T06:09:16.397Z,11.90
2019-05-30T06:10:21.739Z,11.90
2019-05-30T06:11:26.765Z,12.00
2019-05-30T06:12:30.888Z,12.00
2019-05-30T06:13:36.092Z,11.90
2019-05-30T06:14:40.279Z,11.90
2019-05-30T06:15:45.282Z,11.90
2019-05-30T06:16:49.554Z,12.00
2019-05-30T06:17:54.491Z,12.00
2019-05-30T06:18:58.894Z,12.00
2019-05-30T06:20:04.053Z,12.00
2019-05-30T06:21:08.229Z,11.90
2019-05-30T06:22:13.129Z,12.00
2019-05-30T06:23:17.498Z,12.00
2019-05-30T06:24:23.556Z,12.10
2019-05-30T06:25:32.489Z,12.10
2019-05-30T06:26:34.579Z,12.20
2019-05-30T06:27:38.897Z,12.10
2019-05-30T06:28:43.843Z,12.20
2019-05-30T06:29:48.002Z,12.20
2019-05-30T06:30:52.805Z,12.20
2019-05-30T06:31:57.053Z,12.30
2019-05-30T06:33:01.876Z,12.30
2019-05-30T06:34:06.595Z,12.30
2019-05-30T06:35:11.863Z,12.40
2019-05-30T06:36:16.153Z,12.40
2019-05-30T06:37:21.107Z,12.50
2019-05-30T06:38:27.286Z,12.40
2019-05-30T06:39:32.259Z,12.40
2019-05-30T06:40:36.669Z,12.40
2019-05-30T06:41:41.588Z,12.40
2019-05-30T06:42:45.874Z,12.40
2019-05-30T06:43:50.608Z,12.40
2019-05-30T06:44:54.814Z,12.50
2019-05-30T06:45:59.691Z,12.50
2019-05-30T06:47:03.979Z,12.60
2019-05-30T06:48:08.936Z,12.60
2019-05-30T06:49:13.099Z,12.60
2019-05-30T06:50:18.674Z,12.60
2019-05-30T06:51:23.006Z,12.60
2019-05-30T06:52:29.096Z,12.70
2019-05-30T06:53:33.449Z,12.70
2019-05-30T06:54:38.303Z,12.70
2019-05-30T06:55:42.727Z,12.70
2019-05-30T06:56:47.526Z,12.70
2019-05-30T06:57:52.125Z,12.70
2019-05-30T06:58:56.861Z,12.70
2019-05-30T07:00:01.143Z,12.80
2019-05-30T07:01:06.061Z,12.80
2019-05-30T07:02:10.392Z,12.80
2019-05-30T07:03:15.233Z,12.80
2019-05-30T07:04:20.145Z,12.80
2019-05-30T07:05:27.351Z,12.80
2019-05-30T07:06:33.022Z,12.90
2019-05-30T07:07:38.353Z,12.90
2019-05-30T07:08:42.957Z,12.90
2019-05-30T07:09:47.877Z,12.90
2019-05-30T07:10:52.114Z,12.90
2019-05-30T07:11:57.032Z,13.00
2019-05-30T07:13:01.296Z,13.00
2019-05-30T07:14:07.073Z,13.00
2019-05-30T07:15:12.062Z,13.00
2019-05-30T07:16:17.129Z,13.00
2019-05-30T07:17:21.647Z,13.10
2019-05-30T07:18:27.873Z,13.10
2019-05-30T07:19:33.618Z,13.10
2019-05-30T07:20:38.586Z,13.10
2019-05-30T07:21:42.766Z,13.10
2019-05-30T07:22:47.713Z,13.10
2019-05-30T07:23:51.943Z,13.10
2019-05-30T07:24:56.774Z,13.10
2019-05-30T07:26:03.372Z,13.10
2019-05-30T07:27:07.671Z,13.10
2019-05-30T07:28:12.149Z,13.20
2019-05-30T07:29:16.995Z,13.20
2019-05-30T07:30:21.605Z,13.20
2019-05-30T07:31:27.978Z,13.20
2019-05-30T07:32:32.427Z,13.30
2019-05-30T07:33:37.297Z,13.30
2019-05-30T07:34:45.036Z,13.30
2019-05-30T07:35:48.266Z,13.40
2019-05-30T07:36:52.529Z,13.40
2019-05-30T07:37:57.517Z,13.40
2019-05-30T07:39:01.823Z,13.40
2019-05-30T07:40:07.911Z,13.40
2019-05-30T07:41:12.263Z,13.40
2019-05-30T07:42:17.140Z,13.40
2019-05-30T07:43:24.795Z,13.50
2019-05-30T07:44:28.759Z,13.50
2019-05-30T07:45:33.213Z,13.60
2019-05-30T07:46:38.179Z,13.60
2019-05-30T07:47:42.734Z,13.60
2019-05-30T07:48:47.715Z,13.60
2019-05-30T07:49:52.165Z,13.70
2019-05-30T07:50:56.941Z,13.70
2019-05-30T07:52:01.098Z,13.70
2019-05-30T07:53:05.913Z,13.70
2019-05-30T07:54:10.415Z,13.80
2019-05-30T07:55:15.494Z,13.70
2019-05-30T07:56:19.957Z,13.80
2019-05-30T07:57:26.040Z,13.80
2019-05-30T07:58:31.134Z,13.80
2019-05-30T07:59:36.137Z,13.80
2019-05-30T08:00:40.408Z,13.80
2019-05-30T08:01:45.296Z,13.90
2019-05-30T08:02:49.550Z,13.90
2019-05-30T08:03:54.513Z,14.00
2019-05-30T08:04:59.120Z,14.00
2019-05-30T08:06:03.943Z,14.00
2019-05-30T08:07:08.249Z,14.00
2019-05-30T08:08:13.171Z,14.00
2019-05-30T08:09:17.375Z,14.00
2019-05-30T08:10:22.602Z,14.10
2019-05-30T08:11:26.978Z,14.10
2019-05-30T08:12:32.061Z,14.10
2019-05-30T08:13:37.299Z,14.10
2019-05-30T08:14:42.459Z,14.10
2019-05-30T08:15:46.833Z,14.10
2019-05-30T08:16:51.612Z,14.10
2019-05-30T08:17:55.905Z,14.10
2019-05-30T08:19:00.962Z,14.10
2019-05-30T08:20:05.531Z,14.20
2019-05-30T08:21:10.423Z,14.20
2019-05-30T08:22:14.683Z,14.30
2019-05-30T08:23:19.625Z,14.30
2019-05-30T08:24:23.887Z,14.40
2019-05-30T08:25:28.678Z,14.40
2019-05-30T08:26:34.237Z,14.50
2019-05-30T08:27:39.283Z,14.60
2019-05-30T08:28:43.876Z,14.60
2019-05-30T08:29:48.843Z,14.60
2019-05-30T08:30:56.578Z,14.60
2019-05-30T08:31:59.707Z,14.60
2019-05-30T08:33:04.257Z,14.60
2019-05-30T08:34:09.456Z,14.60
2019-05-30T08:35:13.904Z,14.50
2019-05-30T08:36:18.619Z,14.60
2019-05-30T08:37:22.867Z,14.60
2019-05-30T08:38:28.939Z,14.60
2019-05-30T08:39:33.238Z,14.50
2019-05-30T08:40:39.465Z,14.50
2019-05-30T08:41:44.163Z,14.50
2019-05-30T08:42:49.143Z,14.50
2019-05-30T08:43:53.468Z,14.50
2019-05-30T08:44:58.577Z,14.50
2019-05-30T08:46:02.865Z,14.50
2019-05-30T08:47:07.771Z,14.40
2019-05-30T08:48:12.137Z,14.40
2019-05-30T08:49:17.242Z,14.40
2019-05-30T08:50:21.851Z,14.50
2019-05-30T08:51:27.079Z,14.50
2019-05-30T08:52:32.409Z,14.50
2019-05-30T08:53:38.440Z,14.50
2019-05-30T08:54:43.739Z,14.50
2019-05-30T08:55:48.624Z,14.60
2019-05-30T08:56:52.810Z,14.60
2019-05-30T08:57:57.549Z,14.60
2019-05-30T08:59:01.792Z,14.60
2019-05-30T09:00:07.955Z,14.70
2019-05-30T09:01:12.191Z,14.70
2019-05-30T09:02:17.304Z,14.80
2019-05-30T09:03:21.547Z,14.90
2019-05-30T09:04:26.504Z,15.00
2019-05-30T09:05:30.895Z,15.00
2019-05-30T09:06:35.887Z,15.10
2019-05-30T09:07:40.485Z,15.10
2019-05-30T09:08:46.357Z,15.10
2019-05-30T09:09:50.735Z,15.20
2019-05-30T09:10:55.628Z,15.20
2019-05-30T09:11:59.894Z,15.30
2019-05-30T09:13:04.857Z,15.20
2019-05-30T09:14:09.194Z,15.20
2019-05-30T09:15:14.691Z,15.20
2019-05-30T09:16:18.978Z,15.20
2019-05-30T09:17:23.912Z,15.10
2019-05-30T09:18:28.330Z,15.10
2019-05-30T09:19:33.515Z,15.00
2019-05-30T09:20:38.443Z,15.00
2019-05-30T09:21:45.469Z,14.90
2019-05-30T09:22:49.932Z,14.90
2019-05-30T09:23:58.904Z,14.90
2019-05-30T09:25:00.985Z,14.90
2019-05-30T09:26:05.985Z,14.90
2019-05-30T09:27:10.176Z,14.90
2019-05-30T09:28:15.113Z,14.90
2019-05-30T09:29:19.550Z,15.00
2019-05-30T09:30:24.724Z,15.10
2019-05-30T09:31:28.906Z,15.10
2019-05-30T09:32:33.837Z,15.20
2019-05-30T09:33:38.121Z,15.20
2019-05-30T09:34:44.883Z,15.20
2019-05-30T09:35:49.182Z,15.40
2019-05-30T09:36:54.202Z,15.40
2019-05-30T09:37:58.724Z,15.50
2019-05-30T09:39:04.935Z,15.60
2019-05-30T09:40:11.012Z,15.70
2019-05-30T09:41:15.809Z,15.80
2019-05-30T09:42:20.158Z,15.90
2019-05-30T09:43:24.963Z,16.30
2019-05-30T09:44:29.395Z,16.90
2019-05-30T09:45:34.936Z,17.20
2019-05-30T09:46:40.825Z,17.70
2019-05-30T09:47:47.185Z,17.90
2019-05-30T09:48:52.092Z,18.50
2019-05-30T09:49:57.064Z,19.50
2019-05-30T09:51:01.343Z,19.40
2019-05-30T09:52:06.265Z,18.60
2019-05-30T09:53:10.523Z,17.90
2019-05-30T09:54:15.440Z,17.40
2019-05-30T09:55:21.022Z,17.00
2019-05-30T09:56:25.811Z,16.70
2019-05-30T09:57:30.034Z,17.30
2019-05-30T09:58:35.107Z,17.50
2019-05-30T09:59:43.575Z,17.30
2019-05-30T10:00:50.435Z,17.10
2019-05-30T10:01:54.751Z,17.50
2019-05-30T10:02:59.533Z,17.60
2019-05-30T10:04:04.499Z,17.80
2019-05-30T10:05:10.058Z,17.90
2019-05-30T10:06:28.472Z,18.90
2019-05-30T10:07:21.048Z,20.20
2019-05-30T10:08:25.351Z,21.20
2019-05-30T10:09:30.159Z,21.90
2019-05-30T10:10:34.411Z,22.30
2019-05-30T10:11:39.313Z,22.50
2019-05-30T10:12:43.901Z,22.30
2019-05-30T10:13:51.235Z,21.70
2019-05-30T10:14:57.103Z,20.60
2019-05-30T10:16:02.083Z,19.60
2019-05-30T10:17:06.476Z,18.80
2019-05-30T10:18:11.540Z,18.20
2019-05-30T10:19:15.862Z,17.70
2019-05-30T10:20:21.329Z,17.40
2019-05-30T10:21:25.629Z,17.10
2019-05-30T10:22:30.484Z,16.90
2019-05-30T10:23:34.808Z,16.70
2019-05-30T10:24:42.919Z,16.50
2019-05-30T10:25:46.635Z,16.40
2019-05-30T10:26:53.118Z,16.30
2019-05-30T10:27:57.836Z,16.20
2019-05-30T10:29:02.866Z,16.10
2019-05-30T10:30:08.837Z,16.00
2019-05-30T10:31:13.666Z,16.00
2019-05-30T10:32:17.972Z,16.30
2019-05-30T10:33:23.009Z,16.80
2019-05-30T10:34:27.332Z,17.10
2019-05-30T10:35:32.684Z,17.40
2019-05-30T10:36:44.196Z,17.60
2019-05-30T10:37:45.475Z,17.70
2019-05-30T10:38:52.068Z,17.80
2019-05-30T10:39:57.815Z,18.00
2019-05-30T10:41:02.886Z,18.20
2019-05-30T10:42:07.867Z,18.20
2019-05-30T10:43:12.203Z,18.30
2019-05-30T10:44:17.093Z,18.50
2019-05-30T10:45:22.125Z,18.70
2019-05-30T10:46:27.443Z,18.70
2019-05-30T10:47:31.805Z,18.80
2019-05-30T10:48:36.980Z,18.90
2019-05-30T10:49:41.498Z,18.80
2019-05-30T10:50:47.296Z,18.60
2019-05-30T10:51:56.285Z,18.60
2019-05-30T10:52:59.074Z,18.60
2019-05-30T10:54:03.723Z,18.60
2019-05-30T10:55:08.985Z,18.60
2019-05-30T10:56:13.377Z,18.60
2019-05-30T10:57:18.093Z,18.50
2019-05-30T10:58:22.767Z,18.60
2019-05-30T10:59:27.616Z,18.70
2019-05-30T11:00:53.736Z,19.00
2019-05-30T11:01:59.499Z,19.50
2019-05-30T11:03:04.073Z,19.60
2019-05-30T11:04:09.136Z,19.70
2019-05-30T11:05:14.467Z,19.70
2019-05-30T11:06:34.505Z,19.60
2019-05-30T11:08:01.190Z,19.40
2019-05-30T11:08:59.610Z,19.50
2019-05-30T11:10:07.838Z,20.70
2019-05-30T11:11:13.077Z,22.00
2019-05-30T11:12:17.564Z,23.00
2019-05-30T11:13:22.612Z,23.60
2019-05-30T11:14:26.877Z,23.90
2019-05-30T11:15:31.650Z,24.20
2019-05-30T11:16:36.149Z,24.40
2019-05-30T11:17:41.165Z,24.80
2019-05-30T11:18:45.600Z,25.10
2019-05-30T11:19:51.706Z,25.40
2019-05-30T11:20:56.509Z,25.60
2019-05-30T11:22:01.438Z,25.80
2019-05-30T11:23:06.240Z,26.00
2019-05-30T11:24:11.211Z,26.10
2019-05-30T11:25:15.598Z,26.20
2019-05-30T11:26:20.745Z,26.00
2019-05-30T11:27:25.085Z,25.80
2019-05-30T11:28:30.293Z,25.50
2019-05-30T11:29:34.507Z,25.40
2019-05-30T11:30:39.501Z,25.30
2019-05-30T11:31:43.768Z,25.20
2019-05-30T11:32:49.055Z,25.30
2019-05-30T11:33:54.980Z,25.10
2019-05-30T11:34:59.929Z,24.10
2019-05-30T11:36:04.466Z,23.10
2019-05-30T11:37:18.848Z,22.60
2019-05-30T11:38:15.570Z,21.90
2019-05-30T11:39:20.654Z,21.50
2019-05-30T11:40:24.919Z,21.30
2019-05-30T11:41:29.891Z,21.00
2019-05-30T11:42:34.213Z,20.50
2019-05-30T11:43:39.295Z,20.10
2019-05-30T11:44:43.768Z,19.70
2019-05-30T11:45:49.721Z,19.50
2019-05-30T11:46:54.092Z,20.30
2019-05-30T11:48:00.128Z,21.40
2019-05-30T11:49:04.447Z,22.30
2019-05-30T11:50:12.855Z,23.00
2019-05-30T11:51:17.143Z,23.50
2019-05-30T11:52:22.064Z,24.00
2019-05-30T11:53:26.658Z,24.40
2019-05-30T11:54:31.586Z,24.70
2019-05-30T11:55:36.103Z,24.80
2019-05-30T11:56:41.016Z,24.80
2019-05-30T11:57:45.639Z,24.60
2019-05-30T11:58:51.822Z,24.30
2019-05-30T11:59:56.602Z,24.10
2019-05-30T12:01:01.477Z,24.30
2019-05-30T12:02:05.948Z,24.50
2019-05-30T12:03:10.933Z,24.70
2019-05-30T12:04:15.267Z,24.90
2019-05-30T12:05:20.557Z,24.70
2019-05-30T12:06:24.956Z,23.40
2019-05-30T12:07:36.501Z,22.70
2019-05-30T12:08:36.380Z,22.00
2019-05-30T12:09:41.126Z,22.40
2019-05-30T12:10:45.619Z,22.40
2019-05-30T12:11:51.022Z,22.40
2019-05-30T12:12:55.697Z,22.30
2019-05-30T12:14:01.495Z,22.00
2019-05-30T12:15:07.110Z,21.80
2019-05-30T12:16:12.173Z,21.40
2019-05-30T12:17:16.713Z,21.10
2019-05-30T12:18:21.785Z,21.10
2019-05-30T12:19:26.248Z,20.90
2019-05-30T12:20:31.152Z,21.60
2019-05-30T12:21:35.807Z,22.10
2019-05-30T12:22:40.690Z,22.60
2019-05-30T12:23:45.004Z,22.60
2019-05-30T12:24:50.155Z,22.70
2019-05-30T12:25:54.411Z,22.70
2019-05-30T12:27:00.106Z,22.70
2019-05-30T12:28:05.089Z,22.70
2019-05-30T12:29:10.208Z,22.80
2019-05-30T12:30:16.029Z,22.90
2019-05-30T12:31:21.083Z,23.10
2019-05-30T12:32:25.444Z,23.40
2019-05-30T12:33:30.520Z,23.70
2019-05-30T12:34:34.710Z,24.00
2019-05-30T12:35:39.491Z,23.20
2019-05-30T12:36:43.756Z,22.40
2019-05-30T12:37:54.819Z,22.80
2019-05-30T12:38:56.278Z,23.50
2019-05-30T12:40:03.080Z,23.80
2019-05-30T12:41:07.451Z,22.80
2019-05-30T12:42:12.639Z,22.10
2019-05-30T12:43:17.015Z,21.60
2019-05-30T12:44:22.252Z,22.00
2019-05-30T12:45:27.016Z,22.50
2019-05-30T12:46:32.159Z,23.00
2019-05-30T12:47:37.045Z,23.30
2019-05-30T12:48:42.195Z,23.70
2019-05-30T12:49:46.809Z,24.10
2019-05-30T12:50:53.087Z,24.40
2019-05-30T12:51:58.389Z,24.70
2019-05-30T12:53:03.205Z,24.80
2019-05-30T12:54:07.485Z,24.70
2019-05-30T12:55:12.957Z,24.30
2019-05-30T12:56:17.391Z,23.80
2019-05-30T12:57:22.362Z,23.60
2019-05-30T12:58:26.901Z,23.50
2019-05-30T12:59:31.686Z,23.60
2019-05-30T13:00:37.415Z,23.80
2019-05-30T13:01:42.562Z,24.10
2019-05-30T13:02:46.933Z,24.30
2019-05-30T13:03:51.830Z,24.40
2019-05-30T13:04:56.834Z,24.30
2019-05-30T13:06:03.267Z,23.50
2019-05-30T13:07:07.968Z,22.80
2019-05-30T13:08:21.192Z,22.20
2019-05-30T13:09:18.891Z,21.90
2019-05-30T13:10:24.831Z,21.40
2019-05-30T13:11:29.095Z,20.90
2019-05-30T13:12:33.897Z,20.50
2019-05-30T13:13:38.367Z,20.20
2019-05-30T13:14:43.289Z,20.00
2019-05-30T13:15:47.585Z,20.00
2019-05-30T13:16:52.401Z,19.80
2019-05-30T13:17:57.288Z,19.90
2019-05-30T13:19:02.341Z,20.60
2019-05-30T13:20:07.760Z,21.20
2019-05-30T13:21:12.811Z,21.40
2019-05-30T13:22:17.087Z,21.50
2019-05-30T13:23:21.919Z,21.40
2019-05-30T13:24:26.393Z,21.40
2019-05-30T13:25:31.587Z,21.40
2019-05-30T13:26:36.073Z,21.20
2019-05-30T13:27:41.123Z,21.10
2019-05-30T13:28:45.504Z,21.00
2019-05-30T13:29:50.285Z,21.10
2019-05-30T13:30:56.082Z,21.60
2019-05-30T13:32:02.528Z,22.00
2019-05-30T13:33:07.270Z,22.10
2019-05-30T13:34:12.479Z,21.80
2019-05-30T13:35:16.914Z,21.70
2019-05-30T13:36:22.035Z,21.70
2019-05-30T13:37:26.463Z,21.60
2019-05-30T13:38:31.474Z,21.80
2019-05-30T13:39:36.031Z,21.90
2019-05-30T13:40:41.106Z,22.10
2019-05-30T13:41:45.591Z,22.10
2019-05-30T13:42:50.950Z,22.00
2019-05-30T13:43:55.471Z,21.90
2019-05-30T13:45:00.536Z,21.80
2019-05-30T13:46:06.272Z,21.60
2019-05-30T13:47:11.568Z,21.40
2019-05-30T13:48:16.177Z,21.30
2019-05-30T13:49:21.304Z,21.20
2019-05-30T13:50:25.860Z,21.10
2019-05-30T13:51:30.645Z,21.00
2019-05-30T13:52:35.147Z,20.80
2019-05-30T13:53:40.071Z,20.70
2019-05-30T13:54:44.619Z,20.70
2019-05-30T13:55:49.441Z,20.90
2019-05-30T13:56:53.816Z,21.00
2019-05-30T13:57:59.531Z,21.10
2019-05-30T13:59:04.081Z,21.00